sensor_id;sensor_type;location;lat;lon;timestamp;pressure;altitude;pressure_sealevel;temperature;humidity
64053;BME280;50299;49.524;8.536;2023-01-10T00:01:54;100194.81;;;2.10;69.91
64053;BME280;50299;49.524;8.536;2023-01-10T00:04:23;100195.91;;;2.09;71.15
64053;BME280;50299;49.524;8.536;2023-01-10T00:06:51;100194.72;;;2.31;68.76
64053;BME280;50299;49.524;8.536;2023-01-10T00:09:18;100200.66;;;2.87;69.28
64053;BME280;50299;49.524;8.536;2023-01-10T00:11:44;100200.59;;;2.98;66.35
64053;BME280;50299;49.524;8.536;2023-01-10T00:14:29;100203.69;;;2.86;68.62
64053;BME280;50299;49.524;8.536;2023-01-10T00:16:58;100200.59;;;2.98;69.87
64053;BME280;50299;49.524;8.536;2023-01-10T00:19:24;100207.97;;;3.36;65.85
64053;BME280;50299;49.524;8.536;2023-01-10T00:21:51;100215.31;;;2.57;67.58
64053;BME280;50299;49.524;8.536;2023-01-10T00:24:17;100208.41;;;2.70;68.63
64053;BME280;50299;49.524;8.536;2023-01-10T00:26:45;100214.56;;;2.47;68.59
64053;BME280;50299;49.524;8.536;2023-01-10T00:29:21;100218.25;;;2.66;68.62
64053;BME280;50299;49.524;8.536;2023-01-10T00:31:48;100226.41;;;2.16;68.99
64053;BME280;50299;49.524;8.536;2023-01-10T00:34:14;100226.78;;;2.59;69.24
64053;BME280;50299;49.524;8.536;2023-01-10T00:36:41;100230.75;;;2.23;68.78
64053;BME280;50299;49.524;8.536;2023-01-10T00:39:07;100234.94;;;1.89;70.58
64053;BME280;50299;49.524;8.536;2023-01-10T00:41:36;100240.44;;;1.74;71.53
64053;BME280;50299;49.524;8.536;2023-01-10T00:44:21;100251.31;;;1.33;72.88
64053;BME280;50299;49.524;8.536;2023-01-10T00:46:50;100255.69;;;1.70;71.69
64053;BME280;50299;49.524;8.536;2023-01-10T00:49:17;100262.22;;;1.74;71.49
64053;BME280;50299;49.524;8.536;2023-01-10T00:51:44;100267.13;;;1.72;71.23
64053;BME280;50299;49.524;8.536;2023-01-10T00:54:12;100285.66;;;1.90;72.63
64053;BME280;50299;49.524;8.536;2023-01-10T00:56:38;100273.94;;;1.39;71.37
64053;BME280;50299;49.524;8.536;2023-01-10T00:59:05;100298.22;;;1.40;71.68
64053;BME280;50299;49.524;8.536;2023-01-10T01:01:32;100310.47;;;1.68;71.26
64053;BME280;50299;49.524;8.536;2023-01-10T01:03:59;100318.91;;;1.41;71.23
64053;BME280;50299;49.524;8.536;2023-01-10T01:06:25;100330.25;;;1.13;71.03
64053;BME280;50299;49.524;8.536;2023-01-10T01:08:52;100332.75;;;1.19;71.77
64053;BME280;50299;49.524;8.536;2023-01-10T01:11:18;100336.94;;;0.69;72.21
64053;BME280;50299;49.524;8.536;2023-01-10T01:13:45;100346.47;;;0.77;72.49
64053;BME280;50299;49.524;8.536;2023-01-10T01:16:11;100345.13;;;0.85;72.80
64053;BME280;50299;49.524;8.536;2023-01-10T01:18:38;100350.19;;;0.61;72.86
64053;BME280;50299;49.524;8.536;2023-01-10T01:21:04;100368.72;;;0.59;72.74
64053;BME280;50299;49.524;8.536;2023-01-10T01:23:32;100364.91;;;0.65;71.97
64053;BME280;50299;49.524;8.536;2023-01-10T01:26:00;100372.16;;;1.02;71.45
64053;BME280;50299;49.524;8.536;2023-01-10T01:28:26;100387.16;;;0.52;72.20
64053;BME280;50299;49.524;8.536;2023-01-10T01:30:53;100398.56;;;0.49;73.19
64053;BME280;50299;49.524;8.536;2023-01-10T01:33:19;100410.38;;;0.27;72.84
64053;BME280;50299;49.524;8.536;2023-01-10T01:35:47;100419.91;;;0.72;72.37
64053;BME280;50299;49.524;8.536;2023-01-10T01:38:14;100437.75;;;0.95;71.34
64053;BME280;50299;49.524;8.536;2023-01-10T01:40:41;100442.38;;;1.00;72.94
64053;BME280;50299;49.524;8.536;2023-01-10T01:43:24;100445.03;;;0.84;70.55
64053;BME280;50299;49.524;8.536;2023-01-10T01:45:51;100458.22;;;1.13;68.74
64053;BME280;50299;49.524;8.536;2023-01-10T01:48:27;100462.63;;;1.19;69.20
64053;BME280;50299;49.524;8.536;2023-01-10T01:51:18;100476.28;;;1.29;68.71
64053;BME280;50299;49.524;8.536;2023-01-10T01:53:50;100483.88;;;1.22;68.64
64053;BME280;50299;49.524;8.536;2023-01-10T01:56:24;100498.47;;;1.58;67.60
64053;BME280;50299;49.524;8.536;2023-01-10T01:59:56;100503.50;;;1.97;68.12
64053;BME280;50299;49.524;8.536;2023-01-10T02:02:18;100514.69;;;2.11;66.09
64053;BME280;50299;49.524;8.536;2023-01-10T02:04:58;100516.50;;;1.64;67.88
64053;BME280;50299;49.524;8.536;2023-01-10T02:07:28;100515.38;;;1.03;69.91
64053;BME280;50299;49.524;8.536;2023-01-10T02:10:05;100513.78;;;1.69;68.04
64053;BME280;50299;49.524;8.536;2023-01-10T02:12:34;100526.50;;;1.49;70.28
64053;BME280;50299;49.524;8.536;2023-01-10T02:15:01;100525.78;;;1.16;69.74
64053;BME280;50299;49.524;8.536;2023-01-10T02:17:28;100535.09;;;1.25;69.67
64053;BME280;50299;49.524;8.536;2023-01-10T02:28:16;100543.66;;;1.02;71.82
64053;BME280;50299;49.524;8.536;2023-01-10T02:31:13;100544.53;;;1.07;73.50
64053;BME280;50299;49.524;8.536;2023-01-10T02:34:07;100548.19;;;1.28;69.06
64053;BME280;50299;49.524;8.536;2023-01-10T02:36:59;100545.44;;;1.23;69.33
64053;BME280;50299;49.524;8.536;2023-01-10T02:39:36;100545.16;;;1.25;69.98
64053;BME280;50299;49.524;8.536;2023-01-10T02:42:08;100548.34;;;1.64;69.05
64053;BME280;50299;49.524;8.536;2023-01-10T02:44:57;100558.59;;;2.25;66.01
64053;BME280;50299;49.524;8.536;2023-01-10T02:47:25;100550.09;;;1.85;67.34
64053;BME280;50299;49.524;8.536;2023-01-10T02:49:52;100555.53;;;1.85;65.82
64053;BME280;50299;49.524;8.536;2023-01-10T02:52:22;100555.09;;;1.46;66.05
64053;BME280;50299;49.524;8.536;2023-01-10T02:54:55;100559.75;;;1.51;66.88
64053;BME280;50299;49.524;8.536;2023-01-10T02:57:55;100568.69;;;2.14;65.99
64053;BME280;50299;49.524;8.536;2023-01-10T03:00:44;100579.13;;;2.73;74.42
64053;BME280;50299;49.524;8.536;2023-01-10T03:03:23;100593.56;;;2.79;63.02
64053;BME280;50299;49.524;8.536;2023-01-10T03:06:21;100579.50;;;1.83;65.71
64053;BME280;50299;49.524;8.536;2023-01-10T03:08:55;100583.91;;;1.89;67.42
64053;BME280;50299;49.524;8.536;2023-01-10T03:11:26;100590.00;;;2.27;64.22
64053;BME280;50299;49.524;8.536;2023-01-10T03:14:24;100590.72;;;1.92;64.57
64053;BME280;50299;49.524;8.536;2023-01-10T03:16:55;100603.19;;;1.73;65.16
64053;BME280;50299;49.524;8.536;2023-01-10T03:19:27;100597.78;;;1.83;66.01
64053;BME280;50299;49.524;8.536;2023-01-10T03:21:56;100614.13;;;1.78;67.13
64053;BME280;50299;49.524;8.536;2023-01-10T03:24:33;100612.72;;;1.75;68.10
64053;BME280;50299;49.524;8.536;2023-01-10T03:27:26;100623.19;;;2.04;63.87
64053;BME280;50299;49.524;8.536;2023-01-10T03:29:56;100622.44;;;1.56;66.15
64053;BME280;50299;49.524;8.536;2023-01-10T03:32:27;100630.59;;;1.56;66.75
64053;BME280;50299;49.524;8.536;2023-01-10T03:34:56;100631.22;;;1.68;65.64
64053;BME280;50299;49.524;8.536;2023-01-10T03:47:04;100649.25;;;1.74;65.66
64053;BME280;50299;49.524;8.536;2023-01-10T03:49:12;100659.72;;;1.98;66.07
64053;BME280;50299;49.524;8.536;2023-01-10T03:51:40;100659.63;;;1.77;65.70
64053;BME280;50299;49.524;8.536;2023-01-10T03:54:08;100669.69;;;2.39;71.10
64053;BME280;50299;49.524;8.536;2023-01-10T03:56:48;100668.44;;;1.94;64.89
64053;BME280;50299;49.524;8.536;2023-01-10T03:59:23;100682.66;;;2.02;67.22
64053;BME280;50299;49.524;8.536;2023-01-10T04:01:51;100686.84;;;1.72;67.45
64053;BME280;50299;49.524;8.536;2023-01-10T04:04:20;100694.38;;;2.02;66.34
64053;BME280;50299;49.524;8.536;2023-01-10T04:06:47;100698.06;;;1.38;66.76
64053;BME280;50299;49.524;8.536;2023-01-10T04:09:13;100699.09;;;1.32;69.20
64053;BME280;50299;49.524;8.536;2023-01-10T04:11:40;100710.34;;;1.09;69.27
64053;BME280;50299;49.524;8.536;2023-01-10T04:14:06;100699.97;;;1.38;69.58
64053;BME280;50299;49.524;8.536;2023-01-10T04:16:33;100704.91;;;1.41;68.52
64053;BME280;50299;49.524;8.536;2023-01-10T04:18:59;100711.00;;;1.53;68.41
64053;BME280;50299;49.524;8.536;2023-01-10T04:21:26;100707.44;;;1.53;67.53
64053;BME280;50299;49.524;8.536;2023-01-10T04:23:52;100710.50;;;1.29;67.88
64053;BME280;50299;49.524;8.536;2023-01-10T04:26:18;100709.66;;;1.24;68.99
64053;BME280;50299;49.524;8.536;2023-01-10T04:28:45;100709.38;;;0.93;68.98
64053;BME280;50299;49.524;8.536;2023-01-10T04:31:11;100712.44;;;1.02;69.09
64053;BME280;50299;49.524;8.536;2023-01-10T04:33:39;100714.78;;;1.15;69.19
64053;BME280;50299;49.524;8.536;2023-01-10T04:36:06;100717.06;;;1.33;68.42
64053;BME280;50299;49.524;8.536;2023-01-10T04:38:32;100729.69;;;1.39;68.99
64053;BME280;50299;49.524;8.536;2023-01-10T04:40:59;100732.19;;;1.46;66.69
64053;BME280;50299;49.524;8.536;2023-01-10T04:43:26;100740.50;;;1.34;68.70
64053;BME280;50299;49.524;8.536;2023-01-10T04:45:52;100735.19;;;1.44;67.98
64053;BME280;50299;49.524;8.536;2023-01-10T04:48:18;100737.41;;;1.48;67.26
64053;BME280;50299;49.524;8.536;2023-01-10T04:50:49;100748.31;;;1.20;68.07
64053;BME280;50299;49.524;8.536;2023-01-10T04:53:16;100762.06;;;1.09;68.19
64053;BME280;50299;49.524;8.536;2023-01-10T04:55:43;100760.59;;;1.23;69.50
64053;BME280;50299;49.524;8.536;2023-01-10T04:58:09;100776.84;;;1.40;69.05
64053;BME280;50299;49.524;8.536;2023-01-10T05:00:36;100768.28;;;1.63;69.32
64053;BME280;50299;49.524;8.536;2023-01-10T05:03:03;100779.09;;;1.48;67.37
64053;BME280;50299;49.524;8.536;2023-01-10T05:05:30;100777.72;;;1.51;68.23
64053;BME280;50299;49.524;8.536;2023-01-10T05:07:57;100784.25;;;1.23;68.89
64053;BME280;50299;49.524;8.536;2023-01-10T05:10:23;100772.78;;;1.15;70.38
64053;BME280;50299;49.524;8.536;2023-01-10T05:12:50;100776.88;;;0.91;70.45
64053;BME280;50299;49.524;8.536;2023-01-10T05:15:16;100782.84;;;0.88;70.16
64053;BME280;50299;49.524;8.536;2023-01-10T05:17:43;100788.22;;;1.10;70.85
64053;BME280;50299;49.524;8.536;2023-01-10T05:20:10;100787.19;;;1.43;68.68
64053;BME280;50299;49.524;8.536;2023-01-10T05:22:38;100784.00;;;1.24;69.04
64053;BME280;50299;49.524;8.536;2023-01-10T05:25:05;100795.81;;;1.35;68.99
64053;BME280;50299;49.524;8.536;2023-01-10T05:27:32;100794.31;;;1.22;69.25
64053;BME280;50299;49.524;8.536;2023-01-10T05:29:58;100798.19;;;0.99;69.85
64053;BME280;50299;49.524;8.536;2023-01-10T05:32:27;100801.56;;;1.65;69.71
64053;BME280;50299;49.524;8.536;2023-01-10T05:34:55;100802.00;;;1.89;72.55
64053;BME280;50299;49.524;8.536;2023-01-10T05:37:22;100802.50;;;1.49;67.26
64053;BME280;50299;49.524;8.536;2023-01-10T05:39:48;100808.94;;;1.70;67.82
64053;BME280;50299;49.524;8.536;2023-01-10T05:42:14;100810.50;;;1.34;66.94
64053;BME280;50299;49.524;8.536;2023-01-10T05:44:40;100824.59;;;1.48;66.52
64053;BME280;50299;49.524;8.536;2023-01-10T05:47:07;100826.88;;;1.07;67.46
64053;BME280;50299;49.524;8.536;2023-01-10T05:49:33;100832.66;;;1.37;67.26
64053;BME280;50299;49.524;8.536;2023-01-10T05:52:02;100823.31;;;1.33;66.06
64053;BME280;50299;49.524;8.536;2023-01-10T05:54:42;100829.03;;;1.32;66.76
64053;BME280;50299;49.524;8.536;2023-01-10T05:57:20;100834.47;;;1.32;64.41
64053;BME280;50299;49.524;8.536;2023-01-10T05:59:47;100839.44;;;1.67;65.52
64053;BME280;50299;49.524;8.536;2023-01-10T06:02:13;100834.28;;;2.03;69.73
64053;BME280;50299;49.524;8.536;2023-01-10T06:04:40;100851.28;;;1.83;64.64
64053;BME280;50299;49.524;8.536;2023-01-10T06:07:06;100857.34;;;1.58;63.79
64053;BME280;50299;49.524;8.536;2023-01-10T06:09:33;100860.78;;;1.75;64.46
64053;BME280;50299;49.524;8.536;2023-01-10T06:11:59;100869.91;;;1.91;65.08
64053;BME280;50299;49.524;8.536;2023-01-10T06:14:26;100881.91;;;1.90;63.35
64053;BME280;50299;49.524;8.536;2023-01-10T06:16:52;100879.13;;;1.53;64.23
64053;BME280;50299;49.524;8.536;2023-01-10T06:19:19;100882.72;;;1.90;64.85
64053;BME280;50299;49.524;8.536;2023-01-10T06:21:45;100891.84;;;2.06;63.00
64053;BME280;50299;49.524;8.536;2023-01-10T06:24:11;100903.94;;;1.34;64.23
64053;BME280;50299;49.524;8.536;2023-01-10T06:26:38;100907.66;;;1.45;64.85
64053;BME280;50299;49.524;8.536;2023-01-10T06:29:05;100906.44;;;1.63;64.49
64053;BME280;50299;49.524;8.536;2023-01-10T06:31:31;100915.09;;;2.14;63.41
64053;BME280;50299;49.524;8.536;2023-01-10T06:33:58;100915.41;;;2.23;63.71
64053;BME280;50299;49.524;8.536;2023-01-10T06:36:24;100911.38;;;2.30;65.52
64053;BME280;50299;49.524;8.536;2023-01-10T06:38:50;100920.47;;;2.46;62.39
64053;BME280;50299;49.524;8.536;2023-01-10T06:41:17;100920.81;;;2.55;62.70
64053;BME280;50299;49.524;8.536;2023-01-10T06:43:45;100926.06;;;2.24;63.64
64053;BME280;50299;49.524;8.536;2023-01-10T06:46:12;100934.56;;;2.33;61.63
64053;BME280;50299;49.524;8.536;2023-01-10T06:48:43;100941.34;;;2.25;62.36
64053;BME280;50299;49.524;8.536;2023-01-10T06:51:11;100953.63;;;2.23;63.86
64053;BME280;50299;49.524;8.536;2023-01-10T06:53:38;100969.88;;;2.12;64.03
64053;BME280;50299;49.524;8.536;2023-01-10T06:56:05;100974.69;;;2.00;63.83
64053;BME280;50299;49.524;8.536;2023-01-10T06:58:31;100974.16;;;1.76;64.44
64053;BME280;50299;49.524;8.536;2023-01-10T07:00:58;100969.69;;;1.92;63.98
64053;BME280;50299;49.524;8.536;2023-01-10T07:03:25;100966.19;;;1.97;64.25
64053;BME280;50299;49.524;8.536;2023-01-10T07:06:00;100963.25;;;2.35;63.43
64053;BME280;50299;49.524;8.536;2023-01-10T07:08:53;100944.28;;;2.51;63.14
64053;BME280;50299;49.524;8.536;2023-01-10T07:11:21;100958.75;;;2.56;66.42
64053;BME280;50299;49.524;8.536;2023-01-10T07:13:52;100966.63;;;2.15;62.30
64053;BME280;50299;49.524;8.536;2023-01-10T07:16:32;100983.94;;;2.26;62.40
64053;BME280;50299;49.524;8.536;2023-01-10T07:19:08;100979.81;;;1.97;62.78
64053;BME280;50299;49.524;8.536;2023-01-10T07:21:41;100989.25;;;2.11;63.00
64053;BME280;50299;49.524;8.536;2023-01-10T07:24:21;100976.66;;;1.78;64.58
64053;BME280;50299;49.524;8.536;2023-01-10T07:26:58;100997.78;;;1.65;63.47
64053;BME280;50299;49.524;8.536;2023-01-10T07:29:40;101003.00;;;1.45;64.23
64053;BME280;50299;49.524;8.536;2023-01-10T07:32:11;101023.66;;;1.41;66.95
64053;BME280;50299;49.524;8.536;2023-01-10T07:38:04;101032.09;;;1.61;64.21
64053;BME280;50299;49.524;8.536;2023-01-10T07:40:42;101036.22;;;1.25;65.48
64053;BME280;50299;49.524;8.536;2023-01-10T07:43:21;101039.53;;;1.27;65.26
64053;BME280;50299;49.524;8.536;2023-01-10T07:45:59;101044.34;;;1.20;65.18
64053;BME280;50299;49.524;8.536;2023-01-10T07:48:37;101033.78;;;1.45;65.82
64053;BME280;50299;49.524;8.536;2023-01-10T07:51:12;101034.81;;;1.39;63.79
64053;BME280;50299;49.524;8.536;2023-01-10T07:54:02;101042.28;;;1.49;64.55
64053;BME280;50299;49.524;8.536;2023-01-10T07:56:38;101040.69;;;1.75;64.34
64053;BME280;50299;49.524;8.536;2023-01-10T08:02:21;101055.81;;;1.88;64.53
64053;BME280;50299;49.524;8.536;2023-01-10T08:05:18;101068.63;;;1.87;65.60
64053;BME280;50299;49.524;8.536;2023-01-10T08:08:08;101067.44;;;1.78;64.40
64053;BME280;50299;49.524;8.536;2023-01-10T08:10:38;101056.41;;;1.68;63.89
64053;BME280;50299;49.524;8.536;2023-01-10T08:13:22;101066.34;;;1.79;62.73
64053;BME280;50299;49.524;8.536;2023-01-10T08:16:11;101071.53;;;2.03;62.58
64053;BME280;50299;49.524;8.536;2023-01-10T08:19:15;101060.22;;;1.67;62.44
64053;BME280;50299;49.524;8.536;2023-01-10T08:21:44;101067.31;;;1.68;61.90
64053;BME280;50299;49.524;8.536;2023-01-10T08:24:15;101079.91;;;1.96;63.51
64053;BME280;50299;49.524;8.536;2023-01-10T08:26:51;101089.28;;;2.05;61.39
64053;BME280;50299;49.524;8.536;2023-01-10T08:29:53;101073.72;;;1.79;61.19
64053;BME280;50299;49.524;8.536;2023-01-10T08:32:20;101088.78;;;1.42;60.51
64053;BME280;50299;49.524;8.536;2023-01-10T08:34:47;101084.09;;;1.60;62.19
64053;BME280;50299;49.524;8.536;2023-01-10T08:37:14;101087.03;;;1.97;61.26
64053;BME280;50299;49.524;8.536;2023-01-10T08:39:40;101084.19;;;1.65;63.79
64053;BME280;50299;49.524;8.536;2023-01-10T08:42:07;101090.44;;;1.27;64.97
64053;BME280;50299;49.524;8.536;2023-01-10T08:44:33;101099.53;;;1.32;65.53
64053;BME280;50299;49.524;8.536;2023-01-10T08:47:00;101095.31;;;1.41;66.10
64053;BME280;50299;49.524;8.536;2023-01-10T08:49:27;101103.94;;;1.16;66.27
64053;BME280;50299;49.524;8.536;2023-01-10T08:51:53;101098.81;;;1.59;66.39
64053;BME280;50299;49.524;8.536;2023-01-10T08:54:19;101103.66;;;1.74;65.11
64053;BME280;50299;49.524;8.536;2023-01-10T08:56:46;101107.19;;;2.23;64.10
64053;BME280;50299;49.524;8.536;2023-01-10T08:59:12;101108.47;;;2.15;64.87
64053;BME280;50299;49.524;8.536;2023-01-10T09:01:39;101121.09;;;2.22;65.00
64053;BME280;50299;49.524;8.536;2023-01-10T09:04:24;101119.34;;;1.88;65.40
64053;BME280;50299;49.524;8.536;2023-01-10T09:07:38;101115.22;;;2.08;64.79
64053;BME280;50299;49.524;8.536;2023-01-10T09:10:44;101120.13;;;2.33;64.76
64053;BME280;50299;49.524;8.536;2023-01-10T09:13:36;101111.84;;;2.23;66.24
64053;BME280;50299;49.524;8.536;2023-01-10T09:16:09;101113.75;;;2.54;66.28
64053;BME280;50299;49.524;8.536;2023-01-10T09:18:39;101125.41;;;2.72;63.46
64053;BME280;50299;49.524;8.536;2023-01-10T09:21:24;101127.41;;;2.54;63.46
64053;BME280;50299;49.524;8.536;2023-01-10T09:24:14;101132.22;;;3.06;66.74
64053;BME280;50299;49.524;8.536;2023-01-10T09:27:09;101141.50;;;3.05;62.34
64053;BME280;50299;49.524;8.536;2023-01-10T09:30:13;101148.25;;;2.92;63.42
64053;BME280;50299;49.524;8.536;2023-01-10T09:33:06;101151.28;;;2.64;63.67
64053;BME280;50299;49.524;8.536;2023-01-10T09:36:08;101155.25;;;2.51;63.36
64053;BME280;50299;49.524;8.536;2023-01-10T09:38:44;101166.84;;;2.41;63.54
64053;BME280;50299;49.524;8.536;2023-01-10T09:41:50;101167.41;;;2.70;65.71
64053;BME280;50299;49.524;8.536;2023-01-10T09:47:54;101169.28;;;2.65;63.00
64053;BME280;50299;49.524;8.536;2023-01-10T09:50:47;101177.63;;;2.80;63.23
64053;BME280;50299;49.524;8.536;2023-01-10T09:54:03;101179.66;;;2.63;62.24
64053;BME280;50299;49.524;8.536;2023-01-10T09:57:03;101184.59;;;2.66;62.32
64053;BME280;50299;49.524;8.536;2023-01-10T09:59:55;101175.38;;;3.04;63.72
64053;BME280;50299;49.524;8.536;2023-01-10T10:06:52;101183.25;;;2.68;62.29
64053;BME280;50299;49.524;8.536;2023-01-10T10:10:48;101176.16;;;1.97;63.35
64053;BME280;50299;49.524;8.536;2023-01-10T10:27:07;101181.34;;;2.69;62.88
64053;BME280;50299;49.524;8.536;2023-01-10T10:37:03;101166.47;;;2.87;63.10
64053;BME280;50299;49.524;8.536;2023-01-10T10:40:45;101172.91;;;2.43;63.14
64053;BME280;50299;49.524;8.536;2023-01-10T10:46:12;101174.56;;;2.72;62.12
64053;BME280;50299;49.524;8.536;2023-01-10T10:48:56;101177.75;;;2.95;61.23
64053;BME280;50299;49.524;8.536;2023-01-10T10:51:50;101173.94;;;2.97;59.84
64053;BME280;50299;49.524;8.536;2023-01-10T10:54:39;101173.97;;;3.29;62.02
64053;BME280;50299;49.524;8.536;2023-01-10T10:57:37;101168.56;;;3.39;62.10
64053;BME280;50299;49.524;8.536;2023-01-10T11:00:31;101165.19;;;3.27;61.52
64053;BME280;50299;49.524;8.536;2023-01-10T11:05:55;101169.47;;;3.55;62.68
64053;BME280;50299;49.524;8.536;2023-01-10T11:08:45;101165.78;;;3.02;61.80
64053;BME280;50299;49.524;8.536;2023-01-10T11:11:28;101154.34;;;3.05;62.67
64053;BME280;50299;49.524;8.536;2023-01-10T11:13:58;101163.25;;;3.69;60.98
64053;BME280;50299;49.524;8.536;2023-01-10T11:17:30;101157.78;;;3.69;60.79
64053;BME280;50299;49.524;8.536;2023-01-10T11:20:39;101147.34;;;3.61;63.36
64053;BME280;50299;49.524;8.536;2023-01-10T11:24:00;101145.06;;;3.90;59.96
64053;BME280;50299;49.524;8.536;2023-01-10T11:26:48;101138.72;;;3.80;60.12
64053;BME280;50299;49.524;8.536;2023-01-10T11:38:40;101149.56;;;4.37;60.17
64053;BME280;50299;49.524;8.536;2023-01-10T11:45:26;101170.94;;;3.73;59.60
64053;BME280;50299;49.524;8.536;2023-01-10T11:49:04;101167.25;;;3.52;59.48
64053;BME280;50299;49.524;8.536;2023-01-10T11:52:45;101159.16;;;3.67;59.32
64053;BME280;50299;49.524;8.536;2023-01-10T11:55:44;101156.91;;;3.54;58.00
64053;BME280;50299;49.524;8.536;2023-01-10T11:59:46;101147.25;;;3.41;58.64
64053;BME280;50299;49.524;8.536;2023-01-10T12:10:27;101145.03;;;2.41;60.42
64053;BME280;50299;49.524;8.536;2023-01-10T12:12:58;101142.59;;;2.72;62.32
64053;BME280;50299;49.524;8.536;2023-01-10T12:15:28;101143.19;;;2.47;60.63
64053;BME280;50299;49.524;8.536;2023-01-10T12:17:58;101128.06;;;2.66;58.60
64053;BME280;50299;49.524;8.536;2023-01-10T12:20:30;101145.69;;;2.54;58.89
64053;BME280;50299;49.524;8.536;2023-01-10T12:23:10;101138.84;;;2.83;59.88
64053;BME280;50299;49.524;8.536;2023-01-10T12:25:40;101131.38;;;2.41;60.34
64053;BME280;50299;49.524;8.536;2023-01-10T12:28:22;101133.94;;;2.80;60.91
64053;BME280;50299;49.524;8.536;2023-01-10T12:30:58;101134.63;;;2.98;59.98
64053;BME280;50299;49.524;8.536;2023-01-10T12:33:42;101134.75;;;3.13;59.77
64053;BME280;50299;49.524;8.536;2023-01-10T12:36:25;101126.31;;;3.62;59.04
64053;BME280;50299;49.524;8.536;2023-01-10T12:39:11;101120.19;;;4.02;57.85
64053;BME280;50299;49.524;8.536;2023-01-10T12:50:50;101128.88;;;3.79;59.12
64053;BME280;50299;49.524;8.536;2023-01-10T12:53:30;101139.00;;;3.78;56.72
64053;BME280;50299;49.524;8.536;2023-01-10T12:56:00;101130.97;;;3.24;57.87
64053;BME280;50299;49.524;8.536;2023-01-10T12:58:42;101133.41;;;3.58;58.58
64053;BME280;50299;49.524;8.536;2023-01-10T13:01:18;101124.81;;;3.91;57.42
64053;BME280;50299;49.524;8.536;2023-01-10T13:03:52;101131.38;;;3.38;58.34
64053;BME280;50299;49.524;8.536;2023-01-10T13:06:26;101133.28;;;3.00;58.79
64053;BME280;50299;49.524;8.536;2023-01-10T13:09:02;101129.25;;;3.45;58.28
64053;BME280;50299;49.524;8.536;2023-01-10T13:11:34;101126.91;;;2.89;58.96
64053;BME280;50299;49.524;8.536;2023-01-10T13:14:06;101124.16;;;2.84;61.53
64053;BME280;50299;49.524;8.536;2023-01-10T13:16:55;101127.97;;;3.21;59.53
64053;BME280;50299;49.524;8.536;2023-01-10T13:19:25;101127.91;;;3.15;59.18
64053;BME280;50299;49.524;8.536;2023-01-10T13:22:18;101127.13;;;2.51;58.88
64053;BME280;50299;49.524;8.536;2023-01-10T13:24:57;101117.59;;;2.53;59.64
64053;BME280;50299;49.524;8.536;2023-01-10T13:27:29;101133.19;;;2.31;60.54
64053;BME280;50299;49.524;8.536;2023-01-10T13:29:56;101116.59;;;2.64;60.07
64053;BME280;50299;49.524;8.536;2023-01-10T13:32:28;101120.31;;;3.23;59.59
64053;BME280;50299;49.524;8.536;2023-01-10T13:35:11;101123.38;;;3.26;57.13
64053;BME280;50299;49.524;8.536;2023-01-10T13:37:41;101117.88;;;2.84;59.50
64053;BME280;50299;49.524;8.536;2023-01-10T13:40:18;101126.91;;;2.89;57.95
64053;BME280;50299;49.524;8.536;2023-01-10T13:51:30;101125.88;;;2.63;56.50
64053;BME280;50299;49.524;8.536;2023-01-10T13:54:01;101123.56;;;2.82;57.66
64053;BME280;50299;49.524;8.536;2023-01-10T13:56:34;101128.72;;;2.47;57.18
64053;BME280;50299;49.524;8.536;2023-01-10T13:59:03;101120.25;;;2.75;57.38
64053;BME280;50299;49.524;8.536;2023-01-10T14:01:51;101125.47;;;2.50;57.76
64053;BME280;50299;49.524;8.536;2023-01-10T14:04:43;101118.50;;;2.64;58.14
64053;BME280;50299;49.524;8.536;2023-01-10T14:07:20;101115.63;;;2.49;57.47
64053;BME280;50299;49.524;8.536;2023-01-10T14:13:21;101117.09;;;3.26;56.90
64053;BME280;50299;49.524;8.536;2023-01-10T14:15:53;101108.47;;;3.12;57.71
64053;BME280;50299;49.524;8.536;2023-01-10T14:18:46;101112.91;;;3.18;56.83
64053;BME280;50299;49.524;8.536;2023-01-10T14:21:21;101087.88;;;2.57;59.58
64053;BME280;50299;49.524;8.536;2023-01-10T14:23:51;101075.81;;;2.53;59.66
64053;BME280;50299;49.524;8.536;2023-01-10T14:26:35;101073.41;;;2.56;58.88
64053;BME280;50299;49.524;8.536;2023-01-10T14:29:14;101077.59;;;2.69;57.84
64053;BME280;50299;49.524;8.536;2023-01-10T14:31:48;101062.03;;;2.69;59.46
64053;BME280;50299;49.524;8.536;2023-01-10T14:34:21;101061.22;;;2.69;59.15
64053;BME280;50299;49.524;8.536;2023-01-10T14:36:57;101066.22;;;2.50;59.14
64053;BME280;50299;49.524;8.536;2023-01-10T14:39:26;101059.28;;;2.64;59.26
64053;BME280;50299;49.524;8.536;2023-01-10T14:41:57;101054.66;;;2.70;58.69
64053;BME280;50299;49.524;8.536;2023-01-10T14:46:59;101055.91;;;2.89;58.70
64053;BME280;50299;49.524;8.536;2023-01-10T14:49:35;101054.66;;;2.70;60.97
64053;BME280;50299;49.524;8.536;2023-01-10T14:52:17;101048.34;;;3.02;60.21
64053;BME280;50299;49.524;8.536;2023-01-10T14:54:46;101055.91;;;3.32;59.10
64053;BME280;50299;49.524;8.536;2023-01-10T14:57:22;101046.69;;;3.48;62.12
64053;BME280;50299;49.524;8.536;2023-01-10T14:59:50;101042.63;;;3.56;58.65
64053;BME280;50299;49.524;8.536;2023-01-10T15:02:26;101042.56;;;3.40;58.70
64053;BME280;50299;49.524;8.536;2023-01-10T15:04:54;101035.94;;;3.26;58.11
64053;BME280;50299;49.524;8.536;2023-01-10T15:07:22;101031.94;;;3.02;59.56
64053;BME280;50299;49.524;8.536;2023-01-10T15:09:51;101029.59;;;2.78;59.91
64053;BME280;50299;49.524;8.536;2023-01-10T15:12:20;101032.75;;;2.97;59.19
64053;BME280;50299;49.524;8.536;2023-01-10T15:14:48;101030.44;;;2.79;59.19
64053;BME280;50299;49.524;8.536;2023-01-10T15:17:17;101035.97;;;2.89;60.29
64053;BME280;50299;49.524;8.536;2023-01-10T15:19:50;101029.31;;;2.75;60.16
64053;BME280;50299;49.524;8.536;2023-01-10T15:22:26;101024.56;;;2.60;62.53
64053;BME280;50299;49.524;8.536;2023-01-10T15:25:05;101028.50;;;2.10;60.76
64053;BME280;50299;49.524;8.536;2023-01-10T15:27:34;101026.81;;;2.04;61.96
64053;BME280;50299;49.524;8.536;2023-01-10T15:30:06;101010.00;;;2.49;60.77